Time;durP1;ratioP1;P1;durP2;ratioP2;P2;SDS_P1;SDS_P2;PMS_P1;PMS_P2;Temp;Humidity;BMP_temperature;BMP_pressure;BME280_temperature;BME280_humidity;BME280_pressure;Samples;Min_cycle;Max_cycle;Signal;HPM_P1;HPM_P2
2020/12/01 00:01:51;;;;;;;8.52;7.72;;;1.50;99.90;;;;;;4997318;28;20211;-67
2020/12/01 00:04:18;;;;;;;7.45;6.85;;;1.40;99.90;;;;;;4989894;28;20243;-67
2020/12/01 00:06:45;;;;;;;8.07;7.28;;;1.40;99.90;;;;;;4993767;28;20248;-67
2020/12/01 00:09:12;;;;;;;8.02;7.20;;;1.30;99.90;;;;;;4997687;28;20225;-67
2020/12/01 00:11:38;;;;;;;8.18;7.38;;;1.30;99.90;;;;;;4993228;28;20603;-67
2020/12/01 00:14:05;;;;;;;7.40;6.80;;;1.30;99.90;;;;;;4992429;28;20989;-67
2020/12/01 00:16:33;;;;;;;8.10;7.30;;;1.40;99.90;;;;;;4991286;28;20288;-67
2020/12/01 00:19:00;;;;;;;7.45;6.82;;;1.30;99.90;;;;;;5000430;28;20212;-67
2020/12/01 00:21:27;;;;;;;7.32;6.72;;;1.30;99.90;;;;;;4993595;28;20304;-67
2020/12/01 00:23:53;;;;;;;7.18;6.45;;;1.30;99.90;;;;;;4999345;28;20217;-66
2020/12/01 00:26:20;;;;;;;7.60;6.85;;;1.30;99.90;;;;;;4994488;28;20201;-67
2020/12/01 00:28:48;;;;;;;8.02;7.22;;;1.30;99.90;;;;;;4997903;28;20210;-68
2020/12/01 00:31:15;;;;;;;6.72;6.13;;;1.30;99.90;;;;;;4997253;28;20770;-67
2020/12/01 00:33:43;;;;;;;7.78;7.07;;;1.20;99.90;;;;;;4997714;28;20216;-67
2020/12/01 00:36:09;;;;;;;7.93;7.07;;;1.10;99.90;;;;;;4988446;28;20319;-68
2020/12/01 00:38:36;;;;;;;7.32;6.65;;;1.10;99.90;;;;;;4988140;28;20209;-67
2020/12/01 00:41:02;;;;;;;8.68;7.63;;;1.10;99.90;;;;;;4992058;28;20591;-67
2020/12/01 00:43:29;;;;;;;7.82;7.13;;;1.10;99.90;;;;;;4988312;28;20698;-67
2020/12/01 00:45:56;;;;;;;8.57;7.35;;;1.10;99.90;;;;;;4995622;28;20220;-67
2020/12/01 00:48:23;;;;;;;8.32;7.53;;;1.10;99.90;;;;;;4987142;28;20247;-67
2020/12/01 00:50:50;;;;;;;8.15;7.45;;;1.10;99.90;;;;;;4995245;28;20224;-67
2020/12/01 00:53:17;;;;;;;7.50;6.78;;;1.10;99.90;;;;;;4993970;28;20223;-67
2020/12/01 00:55:44;;;;;;;7.90;7.20;;;1.00;99.90;;;;;;4994482;28;20217;-67
2020/12/01 00:58:10;;;;;;;8.25;6.95;;;1.00;99.90;;;;;;4993629;28;20221;-67
2020/12/01 01:00:37;;;;;;;8.45;7.65;;;1.00;99.90;;;;;;4986850;28;20224;-67
2020/12/01 01:03:04;;;;;;;8.52;7.75;;;1.00;99.90;;;;;;4992434;28;20271;-66
2020/12/01 01:05:30;;;;;;;8.07;7.05;;;1.00;99.90;;;;;;4987059;28;20706;-67
2020/12/01 01:07:58;;;;;;;7.38;6.68;;;1.10;99.90;;;;;;4998275;28;20584;-66
2020/12/01 01:10:27;;;;;;;7.68;6.97;;;1.00;99.90;;;;;;4990358;28;20315;-66
2020/12/01 01:12:53;;;;;;;8.30;7.50;;;1.00;99.90;;;;;;5002858;23;20216;-75
2020/12/01 01:15:24;;;;;;;7.43;6.65;;;1.00;99.90;;;;;;4997167;28;20220;-75
2020/12/01 01:17:50;;;;;;;7.80;7.10;;;1.00;99.90;;;;;;5002095;28;20228;-75
2020/12/01 01:20:17;;;;;;;7.57;6.78;;;1.00;99.90;;;;;;5002103;28;20255;-75
2020/12/01 01:22:44;;;;;;;6.97;6.38;;;1.00;99.90;;;;;;5003718;28;20197;-77
2020/12/01 01:25:12;;;;;;;7.30;6.70;;;1.00;99.90;;;;;;4986264;28;20220;-75
2020/12/01 01:27:38;;;;;;;7.35;6.70;;;1.00;99.90;;;;;;4988214;28;20205;-75
2020/12/01 01:30:05;;;;;;;7.72;7.13;;;0.90;99.90;;;;;;4990404;28;20221;-75
2020/12/01 01:32:32;;;;;;;7.25;6.65;;;0.90;99.90;;;;;;4988091;28;20291;-75
2020/12/01 01:34:58;;;;;;;7.90;7.20;;;0.90;99.90;;;;;;4989465;28;20660;-76
2020/12/01 01:37:25;;;;;;;8.10;7.30;;;0.90;99.90;;;;;;4984356;28;20206;-76
2020/12/01 01:39:52;;;;;;;7.30;6.35;;;0.90;99.90;;;;;;4987999;28;20464;-75
2020/12/01 01:42:19;;;;;;;7.22;6.63;;;0.80;99.90;;;;;;4991925;28;20196;-76
2020/12/01 01:44:46;;;;;;;6.47;5.88;;;0.80;99.90;;;;;;4987194;28;20228;-76
2020/12/01 01:47:20;;;;;;;8.32;7.53;;;0.80;99.90;;;;;;4995142;28;20208;-75
2020/12/01 01:49:50;;;;;;;8.60;7.35;;;0.80;99.90;;;;;;4983609;28;20218;-75
2020/12/01 01:52:22;;;;;;;7.75;7.05;;;0.80;99.90;;;;;;4988301;28;20205;-76
2020/12/01 01:54:53;;;;;;;7.25;6.65;;;0.80;99.90;;;;;;4989255;28;20654;-76
2020/12/01 01:57:21;;;;;;;7.80;7.10;;;0.80;99.90;;;;;;4987025;28;20668;-75
2020/12/01 01:59:49;;;;;;;7.72;6.70;;;0.80;99.90;;;;;;4980574;28;20229;-75
2020/12/01 02:02:16;;;;;;;8.02;7.32;;;0.80;99.90;;;;;;4988823;28;20200;-76
2020/12/01 02:04:42;;;;;;;7.45;6.82;;;0.80;99.90;;;;;;4986174;28;20234;-75
2020/12/01 02:07:09;;;;;;;7.65;7.00;;;0.80;99.90;;;;;;4991257;28;20196;-76
2020/12/01 02:09:42;;;;;;;7.55;6.70;;;0.80;99.90;;;;;;4987223;28;20710;-76
2020/12/01 02:12:08;;;;;;;7.22;6.53;;;0.80;99.90;;;;;;4989568;28;20196;-76
2020/12/01 02:14:39;;;;;;;8.20;7.50;;;0.80;99.90;;;;;;4984587;28;20530;-75
2020/12/01 02:17:17;;;;;;;7.07;6.38;;;0.70;99.90;;;;;;4987668;28;20197;-76
2020/12/01 02:19:45;;;;;;;7.85;7.05;;;0.70;99.90;;;;;;4985894;28;20374;-76
2020/12/01 02:22:14;;;;;;;7.40;6.80;;;0.70;99.90;;;;;;4993112;28;20197;-75
2020/12/01 02:24:41;;;;;;;8.05;7.35;;;0.70;99.90;;;;;;4994791;28;20698;-75
2020/12/01 02:27:11;;;;;;;7.82;7.22;;;0.70;99.90;;;;;;4993890;28;20197;-75
2020/12/01 02:29:41;;;;;;;7.32;6.70;;;0.70;99.90;;;;;;4987651;28;20224;-76
2020/12/01 02:32:08;;;;;;;8.18;7.38;;;0.60;99.90;;;;;;4993644;28;20268;-75
2020/12/01 02:34:39;;;;;;;8.13;7.43;;;0.60;99.90;;;;;;4995349;28;20224;-75
2020/12/01 02:37:06;;;;;;;7.35;6.75;;;0.60;99.90;;;;;;4989365;28;20228;-75
2020/12/01 02:39:34;;;;;;;7.97;6.97;;;0.60;99.90;;;;;;4993412;28;20555;-75
2020/12/01 02:42:03;;;;;;;7.28;6.75;;;0.60;99.90;;;;;;4989099;28;20252;-75
2020/12/01 02:44:30;;;;;;;7.63;6.93;;;0.60;99.90;;;;;;4990925;28;20271;-76
2020/12/01 02:47:00;;;;;;;7.85;7.15;;;0.60;99.90;;;;;;4992101;28;20202;-75
2020/12/01 02:49:27;;;;;;;8.38;7.63;;;0.60;99.90;;;;;;4991516;28;20610;-76
2020/12/01 02:51:54;;;;;;;7.65;6.95;;;0.60;99.90;;;;;;4991376;28;20200;-75
2020/12/01 02:54:20;;;;;;;7.95;7.25;;;0.60;99.90;;;;;;4984917;28;20581;-77
2020/12/01 02:56:47;;;;;;;8.30;7.40;;;0.50;99.90;;;;;;4990040;28;20197;-76
2020/12/01 02:59:14;;;;;;;8.02;7.32;;;0.50;99.90;;;;;;4988091;28;20220;-75
2020/12/01 03:01:42;;;;;;;7.68;6.97;;;0.40;99.90;;;;;;4986129;28;20201;-75
2020/12/01 03:04:08;;;;;;;8.77;7.75;;;0.40;99.90;;;;;;4983446;28;20221;-76
2020/12/01 03:06:35;;;;;;;7.85;7.03;;;0.40;99.90;;;;;;4987988;28;20232;-76
2020/12/01 03:09:04;;;;;;;7.82;7.13;;;0.40;99.90;;;;;;4987938;28;20197;-75
2020/12/01 03:11:30;;;;;;;7.80;7.10;;;0.40;99.90;;;;;;4988066;28;20213;-75
2020/12/01 03:13:57;;;;;;;8.85;7.95;;;0.40;99.90;;;;;;4990532;28;20236;-76
2020/12/01 03:16:24;;;;;;;8.35;7.60;;;0.40;99.90;;;;;;4983425;28;20224;-75
2020/12/01 03:18:51;;;;;;;8.48;6.82;;;0.40;99.90;;;;;;4989418;28;20232;-75
2020/12/01 03:21:18;;;;;;;7.70;7.00;;;0.40;99.90;;;;;;4989992;28;20793;-75
2020/12/01 03:23:45;;;;;;;7.57;6.85;;;0.30;99.90;;;;;;4991434;28;20223;-76
2020/12/01 03:26:13;;;;;;;7.40;6.70;;;0.30;99.90;;;;;;4979000;28;20295;-75
2020/12/01 03:28:40;;;;;;;6.95;6.35;;;0.30;99.90;;;;;;4990170;28;20224;-75
2020/12/01 03:31:06;;;;;;;6.85;6.22;;;0.30;99.90;;;;;;4990968;28;20233;-75
2020/12/01 03:33:33;;;;;;;7.38;6.45;;;0.20;99.90;;;;;;4986523;28;20217;-76
2020/12/01 03:36:00;;;;;;;7.32;6.72;;;0.20;99.90;;;;;;4993230;28;20275;-75
2020/12/01 03:38:27;;;;;;;7.03;6.43;;;0.20;99.90;;;;;;4980211;28;20562;-75
2020/12/01 03:40:53;;;;;;;6.95;6.35;;;0.10;99.90;;;;;;4989009;28;20279;-75
2020/12/01 03:43:20;;;;;;;8.90;8.02;;;0.10;99.90;;;;;;4986178;28;20218;-75
2020/12/01 03:45:47;;;;;;;7.30;6.57;;;0.10;99.90;;;;;;4985834;28;20221;-75
2020/12/01 03:48:14;;;;;;;7.45;6.75;;;0.10;99.90;;;;;;4977604;28;20205;-75
2020/12/01 03:50:40;;;;;;;8.68;7.22;;;0.10;99.90;;;;;;4986486;28;20644;-76
2020/12/01 03:53:08;;;;;;;7.18;6.47;;;0.10;99.90;;;;;;4989509;28;20217;-75
2020/12/01 03:55:35;;;;;;;8.32;7.50;;;0.10;99.90;;;;;;4987857;28;20228;-75
2020/12/01 03:58:01;;;;;;;7.90;7.30;;;0.00;99.90;;;;;;4980040;28;20232;-75
2020/12/01 04:00:30;;;;;;;8.38;7.68;;;0.00;99.90;;;;;;4988590;28;20224;-73
2020/12/01 04:02:57;;;;;;;8.75;8.05;;;0.00;99.90;;;;;;4990777;28;20221;-75
2020/12/01 04:05:26;;;;;;;7.95;7.13;;;0.00;99.90;;;;;;4987090;28;20217;-75
2020/12/01 04:07:53;;;;;;;7.85;7.10;;;0.00;99.90;;;;;;4988561;28;20212;-75
2020/12/01 04:10:22;;;;;;;7.38;6.78;;;0.00;99.90;;;;;;4988103;28;20229;-75
2020/12/01 04:12:49;;;;;;;7.20;6.60;;;0.00;99.90;;;;;;4988283;28;20200;-75
2020/12/01 04:15:18;;;;;;;7.68;6.97;;;0.00;99.90;;;;;;4984579;28;20223;-75
2020/12/01 04:17:44;;;;;;;7.47;6.85;;;0.10;99.90;;;;;;4983882;28;20521;-75
2020/12/01 04:20:12;;;;;;;7.55;6.95;;;0.10;99.90;;;;;;4984254;28;20225;-75
2020/12/01 04:22:39;;;;;;;8.35;7.65;;;0.10;99.90;;;;;;4988110;28;20211;-75
2020/12/01 04:25:08;;;;;;;8.32;7.55;;;0.10;99.90;;;;;;4988410;28;20217;-75
2020/12/01 04:27:37;;;;;;;8.18;7.40;;;0.00;99.90;;;;;;4988229;28;20204;-75
2020/12/01 04:30:04;;;;;;;8.50;7.70;;;0.00;99.90;;;;;;4980259;28;20236;-75
2020/12/01 04:32:31;;;;;;;8.18;7.47;;;-0.10;99.90;;;;;;4990703;28;20201;-75
2020/12/01 04:34:57;;;;;;;8.43;7.38;;;-0.20;99.90;;;;;;4982717;28;20300;-75
2020/12/01 04:37:24;;;;;;;8.30;7.50;;;-0.20;99.90;;;;;;4992218;28;20250;-75
2020/12/01 04:39:51;;;;;;;8.43;7.63;;;-0.30;99.90;;;;;;4975987;28;20284;-75
2020/12/01 04:42:19;;;;;;;8.18;7.47;;;-0.30;99.90;;;;;;4987958;28;20202;-75
2020/12/01 04:44:54;;;;;;;8.57;7.88;;;-0.30;99.90;;;;;;4986482;28;20236;-74
2020/12/01 04:47:26;;;;;;;7.15;6.55;;;-0.30;99.90;;;;;;4986704;28;20672;-75
2020/12/01 04:49:58;;;;;;;7.60;6.90;;;-0.30;99.90;;;;;;4981304;28;20695;-74
2020/12/01 04:53:00;;;;;;;7.75;7.05;;;-0.40;99.90;;;;;;4988285;28;20197;-76
2020/12/01 04:56:09;;;;;;;8.27;7.57;;;-0.30;99.90;;;;;;4982612;28;20221;-76
2020/12/01 04:58:59;;;;;;;8.32;7.53;;;-0.30;99.90;;;;;;4971331;28;20311;-75
2020/12/01 05:01:50;;;;;;;7.40;6.80;;;-0.40;99.90;;;;;;4980275;28;20220;-77
2020/12/01 05:04:24;;;;;;;8.88;8.10;;;-0.40;99.90;;;;;;4987453;28;20252;-76
2020/12/01 05:07:00;;;;;;;8.48;7.68;;;-0.50;99.90;;;;;;4983994;28;20235;-76
2020/12/01 05:09:35;;;;;;;8.30;7.53;;;-0.50;99.90;;;;;;4980517;28;20200;-76
2020/12/01 05:12:04;;;;;;;7.85;7.15;;;-0.50;99.90;;;;;;4986595;28;20232;-76
2020/12/01 05:14:36;;;;;;;7.68;6.90;;;-0.60;99.90;;;;;;4986891;28;20232;-76
2020/12/01 05:17:57;;;;;;;8.82;8.02;;;-0.50;99.90;;;;;;4984750;28;20572;-76
2020/12/01 05:20:24;;;;;;;8.13;7.50;;;-0.50;99.90;;;;;;4975591;28;20226;-76
2020/12/01 05:22:53;;;;;;;8.18;7.38;;;-0.50;99.90;;;;;;4992176;28;20266;-75
2020/12/01 05:25:22;;;;;;;8.07;7.38;;;-0.50;99.90;;;;;;4984401;28;20225;-76
2020/12/01 05:27:49;;;;;;;7.75;7.05;;;-0.50;99.90;;;;;;4986702;28;20201;-76
2020/12/01 05:30:20;;;;;;;7.75;7.10;;;-0.50;99.90;;;;;;4980069;28;20709;-76
2020/12/01 05:32:56;;;;;;;7.88;7.18;;;-0.50;99.90;;;;;;4980430;28;20578;-76
2020/12/01 05:35:25;;;;;;;8.48;7.78;;;-0.50;99.90;;;;;;4985328;28;20224;-76
2020/12/01 05:37:59;;;;;;;8.07;7.38;;;-0.50;99.90;;;;;;4986040;28;20664;-75
2020/12/01 05:40:28;;;;;;;8.38;7.55;;;-0.50;99.90;;;;;;4989096;28;20233;-77
2020/12/01 05:42:55;;;;;;;7.03;6.43;;;-0.50;99.90;;;;;;4984106;28;20688;-76
2020/12/01 05:45:29;;;;;;;8.23;7.50;;;-0.50;99.90;;;;;;4979256;28;20303;-77
2020/12/01 05:48:08;;;;;;;9.15;8.35;;;-0.50;99.90;;;;;;4984990;28;20209;-76
2020/12/01 05:50:47;;;;;;;9.15;8.35;;;-0.50;99.90;;;;;;4984176;28;20231;-77
2020/12/01 05:53:15;;;;;;;9.10;8.30;;;-0.50;99.90;;;;;;4984306;28;20221;-76
2020/12/01 05:55:42;;;;;;;9.20;8.07;;;-0.50;99.90;;;;;;4986986;28;20670;-75
2020/12/01 05:58:12;;;;;;;8.40;7.57;;;-0.50;99.90;;;;;;4987668;28;20257;-76
2020/12/01 06:00:41;;;;;;;7.32;6.72;;;-0.40;99.90;;;;;;4984049;28;20244;-77
2020/12/01 06:03:28;;;;;;;8.93;8.18;;;-0.40;99.90;;;;;;4992846;28;20376;-75
2020/12/01 06:05:58;;;;;;;7.25;6.68;;;-0.40;99.90;;;;;;4976724;28;20241;-76
2020/12/01 06:08:37;;;;;;;7.95;7.35;;;-0.40;99.90;;;;;;4984213;28;20205;-75
2020/12/01 06:11:11;;;;;;;9.40;8.50;;;-0.40;99.90;;;;;;4982589;28;20213;-76
2020/12/01 06:13:44;;;;;;;10.05;7.38;;;-0.30;99.90;;;;;;4982929;28;20576;-76
2020/12/01 06:16:32;;;;;;;8.23;7.53;;;-0.30;99.90;;;;;;4978819;28;20867;-76
2020/12/01 06:19:04;;;;;;;7.15;6.55;;;-0.30;99.90;;;;;;4988857;28;20854;-75
2020/12/01 06:21:48;;;;;;;7.57;6.70;;;-0.30;99.90;;;;;;4985288;28;20216;-76
2020/12/01 06:24:52;;;;;;;7.43;6.72;;;-0.20;99.90;;;;;;4989117;28;20244;-76
2020/12/01 06:28:01;;;;;;;7.30;6.70;;;-0.20;99.90;;;;;;4979633;28;20278;-76
2020/12/01 06:31:00;;;;;;;7.25;6.65;;;-0.20;99.90;;;;;;4984305;28;20294;-75
2020/12/01 06:33:53;;;;;;;8.57;7.78;;;-0.10;99.90;;;;;;4982786;28;20217;-75
2020/12/01 06:36:59;;;;;;;7.90;7.20;;;-0.20;99.90;;;;;;4988619;28;20889;-74
2020/12/01 06:39:36;;;;;;;8.93;8.05;;;-0.20;99.90;;;;;;4978125;28;20951;-75
2020/12/01 06:42:13;;;;;;;8.25;7.47;;;-0.20;99.90;;;;;;4984576;28;20220;-75
2020/12/01 06:44:42;;;;;;;9.20;8.40;;;-0.30;99.90;;;;;;4982926;28;20248;-76
2020/12/01 06:47:09;;;;;;;8.30;7.53;;;-0.30;99.90;;;;;;4985060;28;20477;-76
2020/12/01 06:49:37;;;;;;;8.70;7.80;;;-0.20;99.90;;;;;;4981690;28;20204;-77
2020/12/01 06:52:11;;;;;;;8.77;8.07;;;-0.20;99.90;;;;;;4978844;28;20224;-76
2020/12/01 06:54:47;;;;;;;8.65;7.85;;;-0.20;99.90;;;;;;4984054;28;20236;-76
2020/12/01 06:57:31;;;;;;;10.13;9.13;;;-0.20;99.90;;;;;;4982070;28;20220;-76
2020/12/01 06:59:58;;;;;;;8.25;7.28;;;-0.20;99.90;;;;;;4985611;28;20228;-76
2020/12/01 07:02:28;;;;;;;8.48;7.70;;;-0.20;99.90;;;;;;4980754;28;20217;-76
2020/12/01 07:05:06;;;;;;;8.02;7.32;;;-0.20;99.90;;;;;;4984123;28;20213;-75
2020/12/01 07:07:36;;;;;;;8.05;7.35;;;-0.10;99.90;;;;;;4986520;28;20716;-76
2020/12/01 07:10:18;;;;;;;8.85;7.90;;;-0.10;99.90;;;;;;4984802;28;20208;-76
2020/12/01 07:12:49;;;;;;;7.30;6.70;;;0.00;99.90;;;;;;4985022;28;20251;-76
2020/12/01 07:15:28;;;;;;;7.65;7.05;;;0.00;99.90;;;;;;4983175;28;20208;-76
2020/12/01 07:18:03;;;;;;;9.40;8.50;;;0.10;99.90;;;;;;4990827;28;20220;-76
2020/12/01 07:20:39;;;;;;;8.50;7.70;;;0.10;99.90;;;;;;4988028;28;20239;-75
2020/12/01 07:23:28;;;;;;;7.70;7.00;;;0.20;99.90;;;;;;4987363;28;20683;-76
2020/12/01 07:26:11;;;;;;;7.55;6.75;;;0.20;99.90;;;;;;4984968;28;20294;-75
2020/12/01 07:28:53;;;;;;;10.77;8.52;;;0.30;99.90;;;;;;4987313;28;20200;-76
2020/12/01 07:31:22;;;;;;;8.75;7.85;;;0.30;99.90;;;;;;4986232;28;20220;-76
2020/12/01 07:33:52;;;;;;;16.42;13.88;;;0.60;99.90;;;;;;4978019;28;20221;-75
2020/12/01 07:36:28;;;;;;;20.05;16.45;;;0.60;99.90;;;;;;4983042;28;20627;-75
2020/12/01 07:39:08;;;;;;;50.75;34.05;;;0.70;99.90;;;;;;4983417;28;20228;-76
2020/12/01 07:41:44;;;;;;;71.15;43.42;;;0.70;99.90;;;;;;4990085;28;20607;-76
2020/12/01 07:44:14;;;;;;;48.20;32.00;;;0.80;99.90;;;;;;4978684;28;20220;-76
2020/12/01 07:46:48;;;;;;;41.10;27.55;;;0.80;99.90;;;;;;4983670;28;20573;-76
2020/12/01 07:49:15;;;;;;;37.35;26.73;;;0.80;99.90;;;;;;4979692;28;20607;-76
2020/12/01 07:51:43;;;;;;;28.27;19.92;;;0.90;99.90;;;;;;4985011;28;20217;-77
2020/12/01 07:54:17;;;;;;;22.98;17.80;;;0.90;99.90;;;;;;4980987;28;20276;-76
2020/12/01 07:56:44;;;;;;;21.42;16.25;;;0.90;99.90;;;;;;4981081;28;20727;-78
2020/12/01 07:59:13;;;;;;;16.88;13.60;;;0.90;99.90;;;;;;4982050;28;20225;-76
2020/12/01 08:01:40;;;;;;;12.43;11.10;;;0.90;99.90;;;;;;4984441;28;20261;-77
2020/12/01 08:04:11;;;;;;;11.38;10.27;;;0.90;99.90;;;;;;4988213;28;20225;-78
2020/12/01 08:06:38;;;;;;;11.13;9.93;;;0.90;99.90;;;;;;4979549;28;20216;-76
2020/12/01 08:09:12;;;;;;;9.55;8.65;;;1.00;99.90;;;;;;4982843;28;20200;-75
2020/12/01 08:11:42;;;;;;;8.95;8.07;;;1.00;99.90;;;;;;4982634;28;20220;-77
2020/12/01 08:14:09;;;;;;;9.57;8.63;;;1.10;99.90;;;;;;4986922;28;20275;-75
2020/12/01 08:16:37;;;;;;;8.52;7.82;;;1.10;99.90;;;;;;4979569;28;20229;-75
2020/12/01 08:19:04;;;;;;;9.65;8.75;;;1.00;99.90;;;;;;4976758;28;20802;-75
2020/12/01 08:21:34;;;;;;;9.13;8.27;;;1.00;99.90;;;;;;4982154;28;20282;-76
2020/12/01 08:24:04;;;;;;;8.73;7.90;;;1.10;99.90;;;;;;4982519;28;20256;-77
2020/12/01 08:26:32;;;;;;;7.78;7.07;;;1.20;99.90;;;;;;4984490;28;20225;-76
2020/12/01 08:29:04;;;;;;;7.15;6.55;;;1.40;99.90;;;;;;4981119;28;20193;-77
2020/12/01 08:31:39;;;;;;;7.75;7.05;;;1.50;99.90;;;;;;4979204;28;20217;-77
2020/12/01 08:34:18;;;;;;;7.18;6.57;;;1.60;99.90;;;;;;4980089;28;20311;-77
2020/12/01 08:36:56;;;;;;;8.38;7.55;;;1.80;99.90;;;;;;4988695;28;20221;-75
2020/12/01 08:39:33;;;;;;;7.85;7.15;;;1.80;99.90;;;;;;4985560;28;20312;-76
2020/12/01 08:42:14;;;;;;;8.10;7.32;;;1.80;99.90;;;;;;4974687;28;20228;-73
2020/12/01 08:44:47;;;;;;;8.23;7.18;;;1.90;99.90;;;;;;4982150;28;20222;-76
2020/12/01 08:47:14;;;;;;;8.68;7.95;;;2.00;99.90;;;;;;4982542;28;20224;-75
2020/12/01 08:49:43;;;;;;;9.48;8.57;;;2.30;99.90;;;;;;4978704;28;20194;-75
2020/12/01 08:52:39;;;;;;;8.93;8.02;;;2.60;99.90;;;;;;4973445;28;20229;-76
2020/12/01 08:55:22;;;;;;;9.50;8.20;;;2.80;99.90;;;;;;4945500;28;20205;-76
2020/12/01 08:57:55;;;;;;;11.35;9.13;;;3.00;99.90;;;;;;4981818;28;20220;-77
2020/12/01 09:00:24;;;;;;;9.15;8.35;;;3.20;99.90;;;;;;4975758;28;20586;-76
2020/12/01 09:02:52;;;;;;;10.05;9.13;;;3.40;99.90;;;;;;4973348;28;20248;-76
2020/12/01 09:05:31;;;;;;;10.00;9.02;;;3.70;99.90;;;;;;4979964;28;20208;-76
2020/12/01 09:08:33;;;;;;;9.88;8.27;;;3.90;99.90;;;;;;4983946;28;20781;-77
2020/12/01 09:11:18;;;;;;;8.80;7.90;;;3.70;99.90;;;;;;4978492;28;20193;-78
2020/12/01 09:13:59;;;;;;;7.93;7.22;;;3.60;99.90;;;;;;4976435;28;20233;-76
2020/12/01 09:16:34;;;;;;;8.05;7.32;;;3.70;99.90;;;;;;4977978;28;20594;-76
2020/12/01 09:21:53;;;;;;;9.82;8.85;;;3.70;99.90;;;;;;4970725;28;20711;-76
2020/12/01 09:24:23;;;;;;;9.48;8.50;;;3.80;99.90;;;;;;4978121;28;20908;-77
2020/12/01 09:27:01;;;;;;;9.48;8.57;;;3.90;99.90;;;;;;4974002;28;20230;-76
2020/12/01 09:29:28;;;;;;;10.35;8.65;;;3.90;99.90;;;;;;4981879;28;20201;-76
2020/12/01 09:31:55;;;;;;;9.52;7.93;;;4.00;99.90;;;;;;4981816;28;20231;-76
2020/12/01 09:34:23;;;;;;;8.75;7.93;;;4.20;99.90;;;;;;4981562;28;20224;-76
2020/12/01 09:36:56;;;;;;;9.55;8.65;;;4.10;99.90;;;;;;4969115;28;20229;-77
2020/12/01 09:39:24;;;;;;;8.65;7.80;;;4.00;99.90;;;;;;4979451;28;20214;-77
2020/12/01 09:41:59;;;;;;;9.50;8.40;;;4.10;99.90;;;;;;4978235;28;20225;-76
2020/12/01 09:44:44;;;;;;;8.63;7.93;;;4.20;99.90;;;;;;4981248;28;20605;-76
2020/12/01 09:47:15;;;;;;;9.25;8.45;;;4.30;99.90;;;;;;4979186;28;20221;-76
2020/12/01 09:49:42;;;;;;;8.88;7.95;;;4.30;99.90;;;;;;4977839;28;20634;-76
2020/12/01 09:52:12;;;;;;;10.10;7.65;;;4.10;99.90;;;;;;4983187;28;20217;-76
2020/12/01 09:54:43;;;;;;;9.02;8.07;;;3.90;99.90;;;;;;4984930;28;20216;-78
2020/12/01 09:57:13;;;;;;;12.85;9.13;;;3.70;99.90;;;;;;4983984;28;20279;-76
2020/12/01 09:59:47;;;;;;;9.23;8.43;;;3.70;99.90;;;;;;4972300;28;20221;-76
2020/12/01 10:05:45;;;;;;;10.82;8.77;;;3.80;99.90;;;;;;4984254;28;20529;-73
2020/12/01 10:08:23;;;;;;;8.55;7.75;;;4.00;99.90;;;;;;4981393;28;20209;-75
2020/12/01 10:11:04;;;;;;;9.50;8.68;;;4.30;99.90;;;;;;4974991;28;20272;-77
2020/12/01 10:13:41;;;;;;;8.73;7.65;;;4.40;99.90;;;;;;4973691;28;20252;-77
2020/12/01 10:35:46;;;;;;;10.27;8.88;;;3.90;99.90;;;;;;4973327;28;20660;-77
2020/12/01 10:38:13;;;;;;;11.80;8.88;;;4.00;99.90;;;;;;4980579;28;20228;-76
2020/12/01 10:40:40;;;;;;;9.90;8.60;;;4.00;99.90;;;;;;4986065;28;20220;-77
2020/12/01 10:43:07;;;;;;;9.45;8.00;;;4.00;99.90;;;;;;4986051;28;20259;-75
2020/12/01 10:45:34;;;;;;;9.05;8.15;;;3.90;99.90;;;;;;4982003;28;20197;-75
2020/12/01 10:48:01;;;;;;;13.35;8.45;;;3.80;99.90;;;;;;4977427;28;20965;-76
2020/12/01 10:50:30;;;;;;;8.70;7.80;;;3.80;99.90;;;;;;4981171;28;20844;-78
2020/12/01 10:52:57;;;;;;;8.85;7.97;;;3.80;99.90;;;;;;4980969;28;20229;-77
2020/12/01 10:55:30;;;;;;;10.00;8.95;;;3.90;99.90;;;;;;4985012;28;20240;-76
2020/12/01 10:57:57;;;;;;;8.68;7.18;;;3.90;99.90;;;;;;4981833;28;21148;-76
2020/12/01 11:00:27;;;;;;;10.05;9.05;;;3.80;99.90;;;;;;4982809;28;20221;-76
2020/12/01 11:02:54;;;;;;;9.32;8.35;;;3.90;99.90;;;;;;4981380;28;20220;-74
2020/12/01 11:05:23;;;;;;;8.90;7.80;;;3.80;99.90;;;;;;4981795;28;20495;-76
2020/12/01 11:07:50;;;;;;;9.63;8.32;;;3.80;99.90;;;;;;4986524;28;20762;-76
2020/12/01 11:10:16;;;;;;;9.73;8.38;;;3.90;99.90;;;;;;4978769;28;20690;-76
2020/12/01 11:12:44;;;;;;;8.70;7.90;;;4.00;99.90;;;;;;4984273;28;20723;-76
2020/12/01 11:15:11;;;;;;;10.00;8.80;;;4.20;99.90;;;;;;4980839;28;20205;-75
2020/12/01 11:17:38;;;;;;;9.38;8.48;;;4.50;99.90;;;;;;4982525;28;20221;-75
2020/12/01 11:20:05;;;;;;;11.35;9.07;;;4.60;99.90;;;;;;4980882;28;20284;-76
2020/12/01 11:22:31;;;;;;;9.50;8.40;;;4.60;99.90;;;;;;4981193;28;20520;-76
2020/12/01 11:24:58;;;;;;;9.30;8.30;;;4.70;99.90;;;;;;4983982;28;20717;-77
2020/12/01 11:27:24;;;;;;;9.32;8.23;;;4.80;99.90;;;;;;4981020;28;20282;-76
2020/12/01 11:29:55;;;;;;;8.18;7.47;;;4.90;99.90;;;;;;4983373;28;20263;-77
2020/12/01 11:32:21;;;;;;;10.55;9.48;;;5.10;99.90;;;;;;4977555;28;20855;-76
2020/12/01 11:34:48;;;;;;;9.10;8.20;;;5.10;99.90;;;;;;4976538;28;20233;-76
2020/12/01 11:37:15;;;;;;;12.10;8.45;;;4.90;99.90;;;;;;4977161;28;20275;-77
2020/12/01 11:39:42;;;;;;;9.13;8.20;;;4.80;99.90;;;;;;4981437;28;20275;-76
2020/12/01 11:42:11;;;;;;;10.70;9.02;;;4.70;99.90;;;;;;4973746;28;20221;-75
2020/12/01 11:44:38;;;;;;;9.10;7.82;;;4.70;99.90;;;;;;4984256;28;20225;-78
2020/12/01 11:47:05;;;;;;;9.05;8.15;;;4.80;99.90;;;;;;4984118;28;20216;-77
2020/12/01 11:49:32;;;;;;;9.13;8.10;;;4.70;99.90;;;;;;4983466;28;20197;-77
2020/12/01 11:51:59;;;;;;;9.40;8.40;;;4.60;99.90;;;;;;4979930;28;20224;-75
2020/12/01 11:54:26;;;;;;;9.98;9.07;;;4.50;99.90;;;;;;4971607;28;20223;-76
2020/12/01 11:56:52;;;;;;;12.73;9.35;;;4.40;99.90;;;;;;4983285;28;20228;-76
2020/12/01 11:59:19;;;;;;;10.23;8.90;;;4.20;99.90;;;;;;4976711;28;20224;-76
2020/12/01 12:01:46;;;;;;;10.00;9.10;;;4.10;99.90;;;;;;4979533;28;20224;-76
2020/12/01 12:04:14;;;;;;;9.10;8.20;;;4.10;99.90;;;;;;4973603;28;20221;-76
2020/12/01 12:06:40;;;;;;;11.30;8.20;;;4.10;99.90;;;;;;4980543;28;20603;-75
2020/12/01 12:09:09;;;;;;;10.00;9.00;;;4.10;99.90;;;;;;4982852;28;20605;-76
2020/12/01 12:11:36;;;;;;;10.20;9.20;;;4.20;99.90;;;;;;4981311;28;20213;-76
2020/12/01 12:14:03;;;;;;;9.70;8.68;;;4.20;99.90;;;;;;4987974;28;20225;-76
2020/12/01 12:16:30;;;;;;;10.25;9.02;;;4.10;99.90;;;;;;4977597;28;20200;-74
2020/12/01 12:18:57;;;;;;;13.90;9.20;;;4.10;99.90;;;;;;4981125;28;20209;-76
2020/12/01 12:21:25;;;;;;;9.63;8.73;;;4.00;99.90;;;;;;4986303;28;20205;-76
2020/12/01 12:23:52;;;;;;;10.85;8.32;;;4.00;99.90;;;;;;4987031;28;20243;-77
2020/12/01 12:26:19;;;;;;;9.18;8.27;;;4.00;99.90;;;;;;4978305;28;20197;-76
2020/12/01 12:28:46;;;;;;;9.18;8.25;;;4.00;99.90;;;;;;4984282;28;20221;-76
2020/12/01 12:31:15;;;;;;;8.52;7.65;;;4.00;99.90;;;;;;4980439;28;20202;-77
2020/12/01 12:33:42;;;;;;;8.57;7.75;;;4.00;99.90;;;;;;4982703;28;20227;-77
2020/12/01 12:36:09;;;;;;;8.90;8.10;;;4.00;99.90;;;;;;4985125;28;20189;-77
2020/12/01 12:38:36;;;;;;;9.05;7.70;;;4.00;99.90;;;;;;4979756;28;20218;-77
2020/12/01 12:41:04;;;;;;;8.90;8.07;;;4.00;99.90;;;;;;4989503;28;20224;-77
2020/12/01 12:43:31;;;;;;;9.10;8.18;;;4.00;99.90;;;;;;4979508;28;20225;-79
2020/12/01 12:45:58;;;;;;;8.30;7.50;;;4.00;99.90;;;;;;4986359;28;20205;-77
2020/12/01 12:48:26;;;;;;;8.38;7.65;;;4.00;99.90;;;;;;4983234;28;20228;-76
2020/12/01 12:50:52;;;;;;;8.75;7.53;;;3.90;99.90;;;;;;4981693;28;20293;-77
2020/12/01 12:53:19;;;;;;;8.73;7.70;;;3.80;99.90;;;;;;4980876;28;20244;-77
2020/12/01 12:55:47;;;;;;;9.13;8.23;;;3.70;99.90;;;;;;4982874;28;20208;-77
2020/12/01 12:58:13;;;;;;;9.00;8.10;;;3.70;99.90;;;;;;4986452;28;20221;-77
2020/12/01 13:00:40;;;;;;;9.02;8.23;;;3.70;99.90;;;;;;4980248;28;20223;-77
2020/12/01 13:03:07;;;;;;;8.95;8.10;;;3.70;99.90;;;;;;4984257;28;20223;-78
2020/12/01 13:05:33;;;;;;;7.85;7.15;;;3.70;99.90;;;;;;4980674;28;20545;-76
2020/12/01 13:08:00;;;;;;;8.70;7.15;;;3.70;99.90;;;;;;4989694;28;20686;-77
2020/12/01 13:10:26;;;;;;;9.85;8.85;;;3.70;99.90;;;;;;4977461;28;20687;-77
2020/12/01 13:12:54;;;;;;;9.18;8.27;;;3.60;99.90;;;;;;5024772;22;20224;-68
2020/12/01 13:15:21;;;;;;;9.43;8.10;;;3.60;99.90;;;;;;5016276;28;20671;-70
2020/12/01 13:17:48;;;;;;;9.00;7.93;;;3.60;99.90;;;;;;5016300;28;20244;-67
2020/12/01 13:20:16;;;;;;;8.38;7.53;;;3.60;99.90;;;;;;5015149;28;20207;-69
2020/12/01 13:22:43;;;;;;;11.65;8.48;;;3.50;99.90;;;;;;5018593;28;20226;-68
2020/12/01 13:25:09;;;;;;;9.75;8.75;;;3.40;99.90;;;;;;5017304;28;20196;-68
2020/12/01 13:27:36;;;;;;;8.90;8.05;;;3.30;99.90;;;;;;5019291;28;20631;-68
2020/12/01 13:30:05;;;;;;;8.93;8.13;;;3.30;99.90;;;;;;5020098;28;20195;-68
2020/12/01 13:32:32;;;;;;;7.80;7.20;;;3.30;99.90;;;;;;5008719;28;20227;-68
2020/12/01 13:34:59;;;;;;;7.47;6.68;;;3.30;99.90;;;;;;4998693;28;20215;-69
2020/12/01 13:37:26;;;;;;;8.82;8.00;;;3.40;99.90;;;;;;5007315;28;20219;-69